sensor_id;sensor_type;location;lat;lon;timestamp;pressure;altitude;pressure_sealevel;temperature;humidity
20630;BME280;17386;43.846;25.950;2023-04-30T00:02:11;101030.94;;;12.14;78.73
20630;BME280;17386;43.846;25.950;2023-04-30T00:04:36;101016.38;;;12.01;78.31
20630;BME280;17386;43.846;25.950;2023-04-30T00:07:02;101044.44;;;12.10;77.58
20630;BME280;17386;43.846;25.950;2023-04-30T00:09:28;101030.19;;;12.11;76.99
20630;BME280;17386;43.846;25.950;2023-04-30T00:11:53;101031.13;;;12.10;76.70
20630;BME280;17386;43.846;25.950;2023-04-30T00:14:18;101016.09;;;12.07;75.87
20630;BME280;17386;43.846;25.950;2023-04-30T00:16:44;101024.94;;;12.09;75.90
20630;BME280;17386;43.846;25.950;2023-04-30T00:19:09;101033.00;;;12.06;75.97
20630;BME280;17386;43.846;25.950;2023-04-30T00:21:35;101016.47;;;11.98;76.01
20630;BME280;17386;43.846;25.950;2023-04-30T00:24:00;101030.69;;;11.97;76.35
20630;BME280;17386;43.846;25.950;2023-04-30T00:26:26;101024.72;;;11.90;76.75
20630;BME280;17386;43.846;25.950;2023-04-30T00:28:51;101025.88;;;11.83;76.96
20630;BME280;17386;43.846;25.950;2023-04-30T00:31:16;101024.34;;;11.76;77.32
20630;BME280;17386;43.846;25.950;2023-04-30T00:33:42;101024.59;;;11.68;78.24
20630;BME280;17386;43.846;25.950;2023-04-30T00:36:07;101022.22;;;11.61;78.89
20630;BME280;17386;43.846;25.950;2023-04-30T00:38:32;101015.31;;;11.55;79.33
20630;BME280;17386;43.846;25.950;2023-04-30T00:40:58;101001.44;;;11.47;79.56
20630;BME280;17386;43.846;25.950;2023-04-30T00:43:24;101007.63;;;11.46;79.72
20630;BME280;17386;43.846;25.950;2023-04-30T00:45:49;101014.00;;;11.42;80.00
20630;BME280;17386;43.846;25.950;2023-04-30T00:48:15;101010.53;;;11.40;80.20
20630;BME280;17386;43.846;25.950;2023-04-30T00:50:42;101009.63;;;11.41;80.51
20630;BME280;17386;43.846;25.950;2023-04-30T00:53:09;101007.03;;;11.38;80.61
20630;BME280;17386;43.846;25.950;2023-04-30T00:55:34;101003.38;;;11.42;80.81
20630;BME280;17386;43.846;25.950;2023-04-30T00:58:00;101008.63;;;11.43;81.04
20630;BME280;17386;43.846;25.950;2023-04-30T01:00:26;101001.50;;;11.44;81.07
20630;BME280;17386;43.846;25.950;2023-04-30T01:02:52;101005.25;;;11.38;81.50
20630;BME280;17386;43.846;25.950;2023-04-30T01:05:17;101003.53;;;11.37;82.15
20630;BME280;17386;43.846;25.950;2023-04-30T01:07:44;101003.53;;;11.37;82.62
20630;BME280;17386;43.846;25.950;2023-04-30T01:10:12;101002.50;;;11.41;82.73
20630;BME280;17386;43.846;25.950;2023-04-30T01:18:48;101006.03;;;11.42;82.01
20630;BME280;17386;43.846;25.950;2023-04-30T01:21:00;101002.44;;;11.43;81.66
20630;BME280;17386;43.846;25.950;2023-04-30T01:26:33;101003.56;;;11.36;81.04
20630;BME280;17386;43.846;25.950;2023-04-30T01:29:09;100994.13;;;11.27;81.21
20630;BME280;17386;43.846;25.950;2023-04-30T01:31:36;100994.22;;;11.24;81.43
20630;BME280;17386;43.846;25.950;2023-04-30T01:34:01;101009.22;;;11.27;81.37
20630;BME280;17386;43.846;25.950;2023-04-30T01:42:24;100991.69;;;11.21;80.91
20630;BME280;17386;43.846;25.950;2023-04-30T01:48:00;100990.03;;;11.17;81.54
20630;BME280;17386;43.846;25.950;2023-04-30T01:50:37;100957.06;;;10.96;81.90
20630;BME280;17386;43.846;25.950;2023-04-30T01:53:06;100988.38;;;11.14;81.83
20630;BME280;17386;43.846;25.950;2023-04-30T01:55:57;100980.47;;;11.11;81.76
20630;BME280;17386;43.846;25.950;2023-04-30T01:58:22;100984.03;;;11.12;81.82
20630;BME280;17386;43.846;25.950;2023-04-30T02:00:48;100988.44;;;11.11;82.14
20630;BME280;17386;43.846;25.950;2023-04-30T02:03:13;100982.31;;;11.09;82.44
20630;BME280;17386;43.846;25.950;2023-04-30T02:05:39;100986.03;;;11.05;82.90
20630;BME280;17386;43.846;25.950;2023-04-30T02:08:04;100988.72;;;11.04;82.89
20630;BME280;17386;43.846;25.950;2023-04-30T02:10:30;100983.50;;;11.01;83.37
20630;BME280;17386;43.846;25.950;2023-04-30T02:12:55;100980.03;;;10.99;83.84
20630;BME280;17386;43.846;25.950;2023-04-30T02:15:21;100988.81;;;11.01;83.63
20630;BME280;17386;43.846;25.950;2023-04-30T02:17:46;100982.69;;;10.99;83.25
20630;BME280;17386;43.846;25.950;2023-04-30T02:20:12;100984.50;;;10.98;83.03
20630;BME280;17386;43.846;25.950;2023-04-30T02:22:37;100987.34;;;10.92;82.91
20630;BME280;17386;43.846;25.950;2023-04-30T02:25:03;100994.22;;;10.98;82.15
20630;BME280;17386;43.846;25.950;2023-04-30T02:27:31;100976.66;;;10.93;81.66
20630;BME280;17386;43.846;25.950;2023-04-30T02:29:58;100990.00;;;10.92;81.79
20630;BME280;17386;43.846;25.950;2023-04-30T02:32:23;100995.41;;;10.89;81.98
20630;BME280;17386;43.846;25.950;2023-04-30T02:34:49;100990.22;;;10.86;82.36
20630;BME280;17386;43.846;25.950;2023-04-30T02:37:15;100999.97;;;10.85;82.26
20630;BME280;17386;43.846;25.950;2023-04-30T02:39:40;100980.09;;;10.71;82.63
20630;BME280;17386;43.846;25.950;2023-04-30T02:42:06;100994.19;;;10.73;82.89
20630;BME280;17386;43.846;25.950;2023-04-30T02:44:32;100996.91;;;10.71;83.47
20630;BME280;17386;43.846;25.950;2023-04-30T02:46:58;100989.81;;;10.70;83.70
20630;BME280;17386;43.846;25.950;2023-04-30T02:49:24;100985.47;;;10.67;83.69
20630;BME280;17386;43.846;25.950;2023-04-30T02:51:49;100997.84;;;10.68;83.37
20630;BME280;17386;43.846;25.950;2023-04-30T02:54:14;100993.50;;;10.66;83.32
20630;BME280;17386;43.846;25.950;2023-04-30T02:56:40;100991.84;;;10.62;83.44
20630;BME280;17386;43.846;25.950;2023-04-30T02:59:05;100999.06;;;10.58;83.69
20630;BME280;17386;43.846;25.950;2023-04-30T03:01:31;101001.88;;;10.54;83.95
20630;BME280;17386;43.846;25.950;2023-04-30T03:03:56;101001.06;;;10.52;84.42
20630;BME280;17386;43.846;25.950;2023-04-30T03:06:25;101009.00;;;10.52;84.38
20630;BME280;17386;43.846;25.950;2023-04-30T03:08:50;101004.63;;;10.51;84.69
20630;BME280;17386;43.846;25.950;2023-04-30T03:11:16;101009.06;;;10.50;84.86
20630;BME280;17386;43.846;25.950;2023-04-30T03:13:42;101010.81;;;10.51;84.88
20630;BME280;17386;43.846;25.950;2023-04-30T03:16:07;101011.69;;;10.52;84.81
20630;BME280;17386;43.846;25.950;2023-04-30T03:18:33;101008.09;;;10.53;84.42
20630;BME280;17386;43.846;25.950;2023-04-30T03:20:58;101008.03;;;10.54;84.23
20630;BME280;17386;43.846;25.950;2023-04-30T03:23:26;101018.78;;;10.51;84.61
20630;BME280;17386;43.846;25.950;2023-04-30T03:25:52;101009.25;;;10.44;84.44
20630;BME280;17386;43.846;25.950;2023-04-30T03:28:18;101019.03;;;10.42;84.87
20630;BME280;17386;43.846;25.950;2023-04-30T03:30:43;101026.19;;;10.40;85.13
20630;BME280;17386;43.846;25.950;2023-04-30T03:33:08;101025.28;;;10.41;84.99
20630;BME280;17386;43.846;25.950;2023-04-30T03:35:34;101024.34;;;10.42;85.07
20630;BME280;17386;43.846;25.950;2023-04-30T03:38:00;101034.97;;;10.42;85.14
20630;BME280;17386;43.846;25.950;2023-04-30T03:40:26;101031.44;;;10.41;84.96
20630;BME280;17386;43.846;25.950;2023-04-30T03:42:51;101046.28;;;10.49;84.68
20630;BME280;17386;43.846;25.950;2023-04-30T03:45:17;101039.97;;;10.53;84.43
20630;BME280;17386;43.846;25.950;2023-04-30T03:47:42;101046.09;;;10.55;84.40
20630;BME280;17386;43.846;25.950;2023-04-30T03:50:09;101044.31;;;10.55;84.57
20630;BME280;17386;43.846;25.950;2023-04-30T03:52:34;101045.00;;;10.62;84.47
20630;BME280;17386;43.846;25.950;2023-04-30T03:55:01;101051.03;;;10.67;84.24
20630;BME280;17386;43.846;25.950;2023-04-30T03:57:27;101045.59;;;10.72;83.77
20630;BME280;17386;43.846;25.950;2023-04-30T03:59:52;101050.03;;;10.71;83.69
20630;BME280;17386;43.846;25.950;2023-04-30T04:02:17;101047.28;;;10.74;83.89
20630;BME280;17386;43.846;25.950;2023-04-30T04:04:43;101038.38;;;10.75;83.89
20630;BME280;17386;43.846;25.950;2023-04-30T04:07:08;101046.16;;;10.81;84.05
20630;BME280;17386;43.846;25.950;2023-04-30T04:09:35;101040.75;;;10.84;83.34
20630;BME280;17386;43.846;25.950;2023-04-30T04:12:01;101044.28;;;10.85;83.32
20630;BME280;17386;43.846;25.950;2023-04-30T04:14:27;101039.72;;;10.88;83.67
20630;BME280;17386;43.846;25.950;2023-04-30T04:16:52;101043.25;;;10.89;83.90
20630;BME280;17386;43.846;25.950;2023-04-30T04:19:17;101041.38;;;10.92;83.98
20630;BME280;17386;43.846;25.950;2023-04-30T04:21:43;101033.28;;;10.95;83.90
20630;BME280;17386;43.846;25.950;2023-04-30T04:24:09;101039.41;;;10.99;83.78
20630;BME280;17386;43.846;25.950;2023-04-30T04:26:35;101028.97;;;10.93;83.34
20630;BME280;17386;43.846;25.950;2023-04-30T04:29:01;101036.75;;;10.99;82.77
20630;BME280;17386;43.846;25.950;2023-04-30T04:31:28;101034.03;;;11.01;82.60
20630;BME280;17386;43.846;25.950;2023-04-30T04:33:55;101042.75;;;11.04;82.54
20630;BME280;17386;43.846;25.950;2023-04-30T04:36:26;101040.97;;;11.05;82.43
20630;BME280;17386;43.846;25.950;2023-04-30T04:38:58;101043.53;;;11.08;82.46
20630;BME280;17386;43.846;25.950;2023-04-30T04:41:28;101041.59;;;11.13;82.46
20630;BME280;17386;43.846;25.950;2023-04-30T04:43:54;101044.09;;;11.17;82.60
20630;BME280;17386;43.846;25.950;2023-04-30T04:46:21;101044.72;;;11.26;82.70
20630;BME280;17386;43.846;25.950;2023-04-30T04:48:46;101040.75;;;11.37;82.39
20630;BME280;17386;43.846;25.950;2023-04-30T04:51:12;101038.66;;;11.47;81.72
20630;BME280;17386;43.846;25.950;2023-04-30T04:53:37;101040.84;;;11.61;81.33
20630;BME280;17386;43.846;25.950;2023-04-30T04:56:03;101044.03;;;11.70;80.70
20630;BME280;17386;43.846;25.950;2023-04-30T04:58:30;101046.38;;;11.81;80.22
20630;BME280;17386;43.846;25.950;2023-04-30T05:00:55;101043.50;;;11.87;80.33
20630;BME280;17386;43.846;25.950;2023-04-30T05:03:21;101045.53;;;12.04;79.63
20630;BME280;17386;43.846;25.950;2023-04-30T05:05:47;101047.19;;;12.07;79.25
20630;BME280;17386;43.846;25.950;2023-04-30T05:08:12;101045.31;;;12.10;79.25
20630;BME280;17386;43.846;25.950;2023-04-30T05:10:37;101048.16;;;12.29;79.27
20630;BME280;17386;43.846;25.950;2023-04-30T05:13:03;101055.41;;;12.47;78.66
20630;BME280;17386;43.846;25.950;2023-04-30T05:15:28;101044.34;;;12.58;78.12
20630;BME280;17386;43.846;25.950;2023-04-30T05:17:54;101049.22;;;12.70;77.08
20630;BME280;17386;43.846;25.950;2023-04-30T05:20:19;101052.28;;;12.59;76.05
20630;BME280;17386;43.846;25.950;2023-04-30T05:22:45;101056.06;;;12.76;76.11
20630;BME280;17386;43.846;25.950;2023-04-30T05:25:10;101049.88;;;12.75;75.72
20630;BME280;17386;43.846;25.950;2023-04-30T05:27:36;101063.09;;;12.78;76.26
20630;BME280;17386;43.846;25.950;2023-04-30T05:30:01;101064.59;;;12.85;76.13
20630;BME280;17386;43.846;25.950;2023-04-30T05:32:27;101068.19;;;12.84;75.91
20630;BME280;17386;43.846;25.950;2023-04-30T05:34:53;101059.25;;;12.85;75.47
20630;BME280;17386;43.846;25.950;2023-04-30T05:37:18;101066.94;;;12.93;75.23
20630;BME280;17386;43.846;25.950;2023-04-30T05:39:46;101068.19;;;13.06;74.54
20630;BME280;17386;43.846;25.950;2023-04-30T05:42:12;101065.59;;;13.27;73.82
20630;BME280;17386;43.846;25.950;2023-04-30T05:44:37;101070.91;;;13.49;73.23
20630;BME280;17386;43.846;25.950;2023-04-30T05:47:02;101068.94;;;13.74;72.48
20630;BME280;17386;43.846;25.950;2023-04-30T05:49:28;101066.97;;;13.98;71.76
20630;BME280;17386;43.846;25.950;2023-04-30T05:51:53;101068.75;;;14.18;68.95
20630;BME280;17386;43.846;25.950;2023-04-30T05:54:18;101069.41;;;14.23;68.23
20630;BME280;17386;43.846;25.950;2023-04-30T05:56:44;101060.59;;;14.21;68.07
20630;BME280;17386;43.846;25.950;2023-04-30T05:59:09;101057.25;;;14.16;69.15
20630;BME280;17386;43.846;25.950;2023-04-30T06:01:35;101059.16;;;14.14;70.18
20630;BME280;17386;43.846;25.950;2023-04-30T06:04:00;101058.41;;;14.10;70.62
20630;BME280;17386;43.846;25.950;2023-04-30T06:06:26;101066.75;;;14.03;69.86
20630;BME280;17386;43.846;25.950;2023-04-30T06:08:52;101064.63;;;14.11;69.23
20630;BME280;17386;43.846;25.950;2023-04-30T06:11:17;101066.50;;;14.09;67.98
20630;BME280;17386;43.846;25.950;2023-04-30T06:13:46;101073.28;;;14.16;67.98
20630;BME280;17386;43.846;25.950;2023-04-30T06:16:12;101074.75;;;14.23;66.88
20630;BME280;17386;43.846;25.950;2023-04-30T06:18:37;101074.31;;;14.32;65.87
20630;BME280;17386;43.846;25.950;2023-04-30T06:21:03;101071.25;;;14.41;64.97
20630;BME280;17386;43.846;25.950;2023-04-30T06:23:28;101072.50;;;14.53;65.66
20630;BME280;17386;43.846;25.950;2023-04-30T06:25:54;101072.50;;;14.72;65.98
20630;BME280;17386;43.846;25.950;2023-04-30T06:28:19;101077.09;;;14.87;66.49
20630;BME280;17386;43.846;25.950;2023-04-30T06:30:46;101081.78;;;15.01;67.27
20630;BME280;17386;43.846;25.950;2023-04-30T06:33:11;101077.94;;;15.07;68.05
20630;BME280;17386;43.846;25.950;2023-04-30T06:35:37;101081.41;;;15.09;68.75
20630;BME280;17386;43.846;25.950;2023-04-30T06:38:02;101083.59;;;15.00;69.44
20630;BME280;17386;43.846;25.950;2023-04-30T06:40:28;101070.78;;;15.07;69.42
20630;BME280;17386;43.846;25.950;2023-04-30T06:42:53;101073.94;;;15.15;68.54
20630;BME280;17386;43.846;25.950;2023-04-30T06:45:19;101079.66;;;15.26;68.34
20630;BME280;17386;43.846;25.950;2023-04-30T06:47:44;101088.19;;;15.16;68.79
20630;BME280;17386;43.846;25.950;2023-04-30T06:50:11;101073.94;;;15.15;69.13
20630;BME280;17386;43.846;25.950;2023-04-30T06:52:37;101081.75;;;15.20;69.04
20630;BME280;17386;43.846;25.950;2023-04-30T06:55:02;101081.19;;;15.13;69.21
20630;BME280;17386;43.846;25.950;2023-04-30T06:57:28;101079.25;;;15.17;69.96
20630;BME280;17386;43.846;25.950;2023-04-30T06:59:54;101080.59;;;15.25;69.86
20630;BME280;17386;43.846;25.950;2023-04-30T07:02:19;101083.09;;;15.28;70.55
20630;BME280;17386;43.846;25.950;2023-04-30T07:04:45;101085.38;;;15.19;71.24
20630;BME280;17386;43.846;25.950;2023-04-30T07:07:10;101082.16;;;15.29;71.60
20630;BME280;17386;43.846;25.950;2023-04-30T07:09:36;101086.03;;;15.41;70.58
20630;BME280;17386;43.846;25.950;2023-04-30T07:12:02;101091.88;;;15.49;69.01
20630;BME280;17386;43.846;25.950;2023-04-30T07:14:28;101096.22;;;15.52;69.21
20630;BME280;17386;43.846;25.950;2023-04-30T07:16:53;101096.28;;;15.50;69.81
20630;BME280;17386;43.846;25.950;2023-04-30T07:19:19;101087.34;;;15.51;70.20
20630;BME280;17386;43.846;25.950;2023-04-30T07:21:44;101083.91;;;15.67;69.50
20630;BME280;17386;43.846;25.950;2023-04-30T07:24:10;101087.91;;;15.93;69.06
20630;BME280;17386;43.846;25.950;2023-04-30T07:26:36;101085.28;;;16.08;69.06
20630;BME280;17386;43.846;25.950;2023-04-30T07:29:02;101083.91;;;16.17;68.76
20630;BME280;17386;43.846;25.950;2023-04-30T07:31:28;101078.13;;;16.25;69.01
20630;BME280;17386;43.846;25.950;2023-04-30T07:33:54;101079.66;;;16.46;68.06
20630;BME280;17386;43.846;25.950;2023-04-30T07:36:20;101075.03;;;16.32;66.20
20630;BME280;17386;43.846;25.950;2023-04-30T07:38:46;101079.31;;;16.52;65.87
20630;BME280;17386;43.846;25.950;2023-04-30T07:41:12;101074.91;;;16.67;64.46
20630;BME280;17386;43.846;25.950;2023-04-30T07:43:37;101067.50;;;16.88;62.66
20630;BME280;17386;43.846;25.950;2023-04-30T07:46:02;101077.22;;;17.06;61.40
20630;BME280;17386;43.846;25.950;2023-04-30T07:48:29;101074.94;;;17.14;60.02
20630;BME280;17386;43.846;25.950;2023-04-30T07:50:54;101077.34;;;17.35;59.27
20630;BME280;17386;43.846;25.950;2023-04-30T07:53:22;101077.22;;;17.52;57.53
20630;BME280;17386;43.846;25.950;2023-04-30T07:55:47;101071.69;;;17.69;56.15
20630;BME280;17386;43.846;25.950;2023-04-30T07:58:12;101079.75;;;17.85;55.61
20630;BME280;17386;43.846;25.950;2023-04-30T08:00:38;101080.03;;;17.95;54.99
20630;BME280;17386;43.846;25.950;2023-04-30T08:03:03;101087.84;;;17.99;54.78
20630;BME280;17386;43.846;25.950;2023-04-30T08:05:29;101081.13;;;18.07;55.12
20630;BME280;17386;43.846;25.950;2023-04-30T08:07:54;101072.31;;;18.19;55.02
20630;BME280;17386;43.846;25.950;2023-04-30T08:10:20;101082.75;;;18.38;54.82
20630;BME280;17386;43.846;25.950;2023-04-30T08:12:45;101070.97;;;18.40;52.95
20630;BME280;17386;43.846;25.950;2023-04-30T08:15:10;101083.25;;;18.30;50.54
20630;BME280;17386;43.846;25.950;2023-04-30T08:17:36;101062.22;;;18.22;51.01
20630;BME280;17386;43.846;25.950;2023-04-30T08:20:05;101063.84;;;18.39;51.65
20630;BME280;17386;43.846;25.950;2023-04-30T08:22:31;101070.94;;;18.54;50.68
20630;BME280;17386;43.846;25.950;2023-04-30T08:24:57;101084.50;;;18.67;50.29
20630;BME280;17386;43.846;25.950;2023-04-30T08:27:22;101076.13;;;18.72;49.44
20630;BME280;17386;43.846;25.950;2023-04-30T08:29:48;101081.41;;;18.88;49.77
20630;BME280;17386;43.846;25.950;2023-04-30T08:32:13;101067.81;;;19.03;49.49
20630;BME280;17386;43.846;25.950;2023-04-30T08:34:38;101070.09;;;19.09;49.91
20630;BME280;17386;43.846;25.950;2023-04-30T08:37:07;101063.69;;;19.25;50.09
20630;BME280;17386;43.846;25.950;2023-04-30T08:39:33;101057.16;;;19.14;49.68
20630;BME280;17386;43.846;25.950;2023-04-30T08:42:01;101061.56;;;19.30;49.41
20630;BME280;17386;43.846;25.950;2023-04-30T08:44:28;101066.31;;;19.39;47.65
20630;BME280;17386;43.846;25.950;2023-04-30T08:46:55;101059.84;;;19.41;48.02
20630;BME280;17386;43.846;25.950;2023-04-30T08:49:21;101058.56;;;19.47;48.67
20630;BME280;17386;43.846;25.950;2023-04-30T08:51:47;101062.44;;;19.43;48.19
20630;BME280;17386;43.846;25.950;2023-04-30T08:54:13;101059.38;;;19.35;47.97
20630;BME280;17386;43.846;25.950;2023-04-30T08:56:41;101054.91;;;19.35;49.56
20630;BME280;17386;43.846;25.950;2023-04-30T08:59:07;101063.75;;;19.50;48.60
20630;BME280;17386;43.846;25.950;2023-04-30T09:01:33;101058.44;;;19.63;49.14
20630;BME280;17386;43.846;25.950;2023-04-30T09:04:01;101038.50;;;19.65;49.51
20630;BME280;17386;43.846;25.950;2023-04-30T09:06:27;101047.34;;;19.93;48.84
20630;BME280;17386;43.846;25.950;2023-04-30T09:08:52;101048.88;;;19.97;48.19
20630;BME280;17386;43.846;25.950;2023-04-30T09:11:26;101041.97;;;20.06;47.70
20630;BME280;17386;43.846;25.950;2023-04-30T09:13:54;101038.72;;;20.01;48.31
20630;BME280;17386;43.846;25.950;2023-04-30T09:16:21;101041.63;;;20.10;48.48
20630;BME280;17386;43.846;25.950;2023-04-30T09:18:47;101035.91;;;20.15;47.67
20630;BME280;17386;43.846;25.950;2023-04-30T09:21:13;101029.34;;;19.81;47.68
20630;BME280;17386;43.846;25.950;2023-04-30T09:23:59;101019.41;;;19.81;47.46
20630;BME280;17386;43.846;25.950;2023-04-30T09:26:46;101016.91;;;20.04;47.34
20630;BME280;17386;43.846;25.950;2023-04-30T09:29:12;101024.81;;;20.19;46.41
20630;BME280;17386;43.846;25.950;2023-04-30T09:31:40;101015.59;;;20.35;44.57
20630;BME280;17386;43.846;25.950;2023-04-30T09:34:05;101006.84;;;20.57;44.70
20630;BME280;17386;43.846;25.950;2023-04-30T09:36:31;101017.31;;;20.61;44.18
20630;BME280;17386;43.846;25.950;2023-04-30T09:39:15;101010.75;;;20.53;42.35
20630;BME280;17386;43.846;25.950;2023-04-30T09:41:43;101016.25;;;20.38;43.35
20630;BME280;17386;43.846;25.950;2023-04-30T09:44:28;101004.69;;;20.49;43.55
20630;BME280;17386;43.846;25.950;2023-04-30T09:46:55;101008.50;;;20.46;43.08
20630;BME280;17386;43.846;25.950;2023-04-30T09:49:24;101004.84;;;20.71;42.88
20630;BME280;17386;43.846;25.950;2023-04-30T09:52:00;101001.53;;;20.92;42.77
20630;BME280;17386;43.846;25.950;2023-04-30T09:54:27;101003.31;;;21.04;41.85
20630;BME280;17386;43.846;25.950;2023-04-30T09:56:54;100992.38;;;21.06;40.74
20630;BME280;17386;43.846;25.950;2023-04-30T09:59:29;100995.44;;;21.01;41.46
20630;BME280;17386;43.846;25.950;2023-04-30T10:01:58;101000.09;;;21.23;41.10
20630;BME280;17386;43.846;25.950;2023-04-30T10:04:26;101002.84;;;21.34;40.09
20630;BME280;17386;43.846;25.950;2023-04-30T10:06:53;100993.88;;;21.34;40.37
20630;BME280;17386;43.846;25.950;2023-04-30T10:09:25;100998.72;;;21.41;40.60
20630;BME280;17386;43.846;25.950;2023-04-30T10:11:55;100998.41;;;21.79;39.56
20630;BME280;17386;43.846;25.950;2023-04-30T10:14:24;100997.50;;;22.25;38.44
20630;BME280;17386;43.846;25.950;2023-04-30T10:17:02;100987.16;;;23.07;37.29
20630;BME280;17386;43.846;25.950;2023-04-30T10:19:35;100986.16;;;23.82;36.46
20630;BME280;17386;43.846;25.950;2023-04-30T10:22:03;100990.25;;;24.97;34.12
20630;BME280;17386;43.846;25.950;2023-04-30T10:24:30;100980.91;;;25.87;32.58
20630;BME280;17386;43.846;25.950;2023-04-30T10:26:55;100976.03;;;26.28;31.58
20630;BME280;17386;43.846;25.950;2023-04-30T10:29:22;100982.31;;;26.83;30.77
20630;BME280;17386;43.846;25.950;2023-04-30T10:31:49;100969.13;;;27.24;29.63
20630;BME280;17386;43.846;25.950;2023-04-30T10:36:59;100965.56;;;27.67;28.90
20630;BME280;17386;43.846;25.950;2023-04-30T10:39:28;100963.03;;;28.00;28.75
20630;BME280;17386;43.846;25.950;2023-04-30T10:42:20;100962.78;;;28.19;27.09
20630;BME280;17386;43.846;25.950;2023-04-30T10:44:45;100963.31;;;28.15;27.65
20630;BME280;17386;43.846;25.950;2023-04-30T10:47:12;100965.97;;;27.54;28.89
20630;BME280;17386;43.846;25.950;2023-04-30T10:49:38;100963.94;;;27.74;28.83
20630;BME280;17386;43.846;25.950;2023-04-30T10:52:04;100960.03;;;28.11;27.74
20630;BME280;17386;43.846;25.950;2023-04-30T10:54:35;100953.88;;;28.43;27.73
20630;BME280;17386;43.846;25.950;2023-04-30T10:57:14;100954.47;;;28.71;27.33
20630;BME280;17386;43.846;25.950;2023-04-30T10:59:53;100952.59;;;28.80;27.06
20630;BME280;17386;43.846;25.950;2023-04-30T11:02:42;100959.94;;;28.63;26.91
20630;BME280;17386;43.846;25.950;2023-04-30T11:05:14;100965.94;;;27.98;27.51
20630;BME280;17386;43.846;25.950;2023-04-30T11:07:50;100960.44;;;26.75;28.71
20630;BME280;17386;43.846;25.950;2023-04-30T11:10:24;100958.13;;;26.25;29.20
20630;BME280;17386;43.846;25.950;2023-04-30T11:12:52;100968.38;;;25.57;29.96
20630;BME280;17386;43.846;25.950;2023-04-30T11:17:45;100961.78;;;24.72;31.27
20630;BME280;17386;43.846;25.950;2023-04-30T11:20:13;100953.19;;;24.27;30.68
20630;BME280;17386;43.846;25.950;2023-04-30T11:22:39;100964.16;;;23.85;31.58
20630;BME280;17386;43.846;25.950;2023-04-30T11:25:08;100958.22;;;23.50;32.74
20630;BME280;17386;43.846;25.950;2023-04-30T11:27:36;100969.31;;;23.26;33.41
20630;BME280;17386;43.846;25.950;2023-04-30T11:30:08;100968.38;;;23.15;34.07
20630;BME280;17386;43.846;25.950;2023-04-30T11:32:36;100959.63;;;22.80;34.51
20630;BME280;17386;43.846;25.950;2023-04-30T11:35:03;100958.00;;;22.34;35.14
20630;BME280;17386;43.846;25.950;2023-04-30T11:40:08;100955.78;;;22.28;35.37
20630;BME280;17386;43.846;25.950;2023-04-30T11:42:36;100953.94;;;22.28;35.08
20630;BME280;17386;43.846;25.950;2023-04-30T11:45:08;100951.59;;;22.01;36.09
20630;BME280;17386;43.846;25.950;2023-04-30T11:48:00;100939.09;;;22.11;35.92
20630;BME280;17386;43.846;25.950;2023-04-30T11:50:31;100936.13;;;22.15;36.35
20630;BME280;17386;43.846;25.950;2023-04-30T11:52:58;100938.22;;;22.11;36.20
20630;BME280;17386;43.846;25.950;2023-04-30T11:55:29;100933.19;;;22.18;35.60
20630;BME280;17386;43.846;25.950;2023-04-30T11:57:55;100932.44;;;22.27;35.98
20630;BME280;17386;43.846;25.950;2023-04-30T12:00:30;100930.94;;;22.23;36.52
20630;BME280;17386;43.846;25.950;2023-04-30T12:02:58;100927.88;;;22.16;36.96
20630;BME280;17386;43.846;25.950;2023-04-30T12:05:25;100926.16;;;22.15;37.50
20630;BME280;17386;43.846;25.950;2023-04-30T12:07:59;100911.78;;;22.15;37.72
20630;BME280;17386;43.846;25.950;2023-04-30T12:10:25;100923.34;;;22.17;37.29
20630;BME280;17386;43.846;25.950;2023-04-30T12:12:51;100915.34;;;22.15;37.60
20630;BME280;17386;43.846;25.950;2023-04-30T12:15:23;100914.72;;;22.00;37.97
20630;BME280;17386;43.846;25.950;2023-04-30T12:17:51;100903.25;;;22.08;38.33
20630;BME280;17386;43.846;25.950;2023-04-30T12:20:19;100910.88;;;22.03;38.42
20630;BME280;17386;43.846;25.950;2023-04-30T12:22:46;100910.66;;;22.06;38.50
20630;BME280;17386;43.846;25.950;2023-04-30T12:25:17;100911.03;;;21.79;39.14
20630;BME280;17386;43.846;25.950;2023-04-30T12:27:51;100904.75;;;21.78;39.07
20630;BME280;17386;43.846;25.950;2023-04-30T12:30:23;100902.44;;;21.96;39.11
20630;BME280;17386;43.846;25.950;2023-04-30T12:32:50;100902.66;;;22.04;38.07
20630;BME280;17386;43.846;25.950;2023-04-30T12:35:18;100901.22;;;22.11;38.39
20630;BME280;17386;43.846;25.950;2023-04-30T12:37:47;100897.13;;;22.06;38.38
20630;BME280;17386;43.846;25.950;2023-04-30T12:40:17;100901.69;;;22.05;38.49
20630;BME280;17386;43.846;25.950;2023-04-30T12:42:43;100885.69;;;22.02;38.67
20630;BME280;17386;43.846;25.950;2023-04-30T12:45:09;100882.75;;;21.94;38.47
20630;BME280;17386;43.846;25.950;2023-04-30T12:47:39;100887.66;;;22.00;39.15
20630;BME280;17386;43.846;25.950;2023-04-30T12:50:08;100877.81;;;21.99;38.46
20630;BME280;17386;43.846;25.950;2023-04-30T12:52:35;100877.72;;;21.90;39.55
20630;BME280;17386;43.846;25.950;2023-04-30T12:55:14;100873.28;;;21.89;39.43
20630;BME280;17386;43.846;25.950;2023-04-30T12:57:40;100873.03;;;21.92;39.85
20630;BME280;17386;43.846;25.950;2023-04-30T13:00:07;100873.53;;;21.97;40.52
20630;BME280;17386;43.846;25.950;2023-04-30T13:02:32;100871.69;;;21.97;40.73
20630;BME280;17386;43.846;25.950;2023-04-30T13:04:58;100866.38;;;22.07;40.71
20630;BME280;17386;43.846;25.950;2023-04-30T13:07:24;100859.47;;;22.03;40.74